sensor_id;sensor_type;location;lat;lon;timestamp;temperature;humidity
20773;DHT22;10546;50.674;4.616;2023-02-01T06:50:22;4.60;99.90
20773;DHT22;10546;50.674;4.616;2023-02-01T06:52:48;4.70;99.90
20773;DHT22;10546;50.674;4.616;2023-02-01T06:55:13;4.50;99.90
20773;DHT22;10546;50.674;4.616;2023-02-01T06:57:39;4.50;99.90
20773;DHT22;10546;50.674;4.616;2023-02-01T07:00:05;4.50;99.90
20773;DHT22;10546;50.674;4.616;2023-02-01T07:02:31;4.60;99.90
20773;DHT22;10546;50.674;4.616;2023-02-01T07:04:56;4.60;99.90
20773;DHT22;10546;50.674;4.616;2023-02-01T07:07:22;4.60;99.90
20773;DHT22;10546;50.674;4.616;2023-02-01T07:09:49;4.50;99.90
20773;DHT22;10546;50.674;4.616;2023-02-01T07:12:15;4.60;99.90
20773;DHT22;10546;50.674;4.616;2023-02-01T07:14:41;4.60;99.90
20773;DHT22;10546;50.674;4.616;2023-02-01T07:17:06;4.70;99.90
20773;DHT22;10546;50.674;4.616;2023-02-01T07:19:32;4.60;99.90
20773;DHT22;10546;50.674;4.616;2023-02-01T07:21:58;4.70;99.90
20773;DHT22;10546;50.674;4.616;2023-02-01T07:24:23;4.60;99.90
20773;DHT22;10546;50.674;4.616;2023-02-01T07:26:49;4.60;99.90
20773;DHT22;10546;50.674;4.616;2023-02-01T07:29:17;4.60;99.90
20773;DHT22;10546;50.674;4.616;2023-02-01T07:31:42;4.80;99.90
20773;DHT22;10546;50.674;4.616;2023-02-01T07:34:08;4.90;99.90
20773;DHT22;10546;50.674;4.616;2023-02-01T07:36:34;4.80;99.90
20773;DHT22;10546;50.674;4.616;2023-02-01T07:39:04;4.90;99.90
20773;DHT22;10546;50.674;4.616;2023-02-01T07:41:30;4.90;99.90
20773;DHT22;10546;50.674;4.616;2023-02-01T07:43:56;4.80;99.90
20773;DHT22;10546;50.674;4.616;2023-02-01T07:46:22;4.90;99.90
20773;DHT22;10546;50.674;4.616;2023-02-01T07:48:48;5.10;99.90
20773;DHT22;10546;50.674;4.616;2023-02-01T07:51:15;5.10;99.90
20773;DHT22;10546;50.674;4.616;2023-02-01T07:53:42;5.20;99.90
20773;DHT22;10546;50.674;4.616;2023-02-01T07:56:18;5.30;99.90
20773;DHT22;10546;50.674;4.616;2023-02-01T07:58:49;5.20;99.90
20773;DHT22;10546;50.674;4.616;2023-02-01T08:01:21;5.30;99.90
20773;DHT22;10546;50.674;4.616;2023-02-01T08:03:57;5.20;99.90
20773;DHT22;10546;50.674;4.616;2023-02-01T08:06:28;5.30;99.90
20773;DHT22;10546;50.674;4.616;2023-02-01T08:08:54;5.50;99.90
20773;DHT22;10546;50.674;4.616;2023-02-01T08:11:21;5.30;99.90
20773;DHT22;10546;50.674;4.616;2023-02-01T08:13:48;5.50;99.90
20773;DHT22;10546;50.674;4.616;2023-02-01T08:16:15;5.60;99.90
20773;DHT22;10546;50.674;4.616;2023-02-01T08:18:41;5.80;99.90
20773;DHT22;10546;50.674;4.616;2023-02-01T08:23:35;6.40;99.90
20773;DHT22;10546;50.674;4.616;2023-02-01T08:26:20;6.60;99.90
20773;DHT22;10546;50.674;4.616;2023-02-01T08:28:49;6.60;99.90
20773;DHT22;10546;50.674;4.616;2023-02-01T08:31:18;6.60;99.90
20773;DHT22;10546;50.674;4.616;2023-02-01T08:33:49;6.50;99.90
20773;DHT22;10546;50.674;4.616;2023-02-01T08:36:14;6.40;99.90
20773;DHT22;10546;50.674;4.616;2023-02-01T08:38:40;6.50;99.90
20773;DHT22;10546;50.674;4.616;2023-02-01T08:41:08;6.50;99.90
20773;DHT22;10546;50.674;4.616;2023-02-01T08:43:34;6.40;99.90
20773;DHT22;10546;50.674;4.616;2023-02-01T08:46:00;6.20;99.90
20773;DHT22;10546;50.674;4.616;2023-02-01T08:48:26;6.10;99.90
20773;DHT22;10546;50.674;4.616;2023-02-01T08:50:52;6.30;99.90
20773;DHT22;10546;50.674;4.616;2023-02-01T08:53:17;6.30;99.90
20773;DHT22;10546;50.674;4.616;2023-02-01T08:55:43;6.40;99.90
20773;DHT22;10546;50.674;4.616;2023-02-01T08:58:10;6.60;99.90
20773;DHT22;10546;50.674;4.616;2023-02-01T09:00:36;6.70;99.90
20773;DHT22;10546;50.674;4.616;2023-02-01T09:03:01;6.80;99.90
20773;DHT22;10546;50.674;4.616;2023-02-01T09:05:27;7.10;99.90
20773;DHT22;10546;50.674;4.616;2023-02-01T09:07:53;7.10;99.90
20773;DHT22;10546;50.674;4.616;2023-02-01T09:10:19;7.10;99.90
20773;DHT22;10546;50.674;4.616;2023-02-01T09:12:44;7.30;99.90
20773;DHT22;10546;50.674;4.616;2023-02-01T09:15:10;7.20;99.90
20773;DHT22;10546;50.674;4.616;2023-02-01T09:17:36;7.50;99.90
20773;DHT22;10546;50.674;4.616;2023-02-01T09:20:02;7.80;99.90
20773;DHT22;10546;50.674;4.616;2023-02-01T09:22:28;8.10;99.90
20773;DHT22;10546;50.674;4.616;2023-02-01T09:24:54;8.50;99.90
20773;DHT22;10546;50.674;4.616;2023-02-01T09:27:19;8.50;99.90
20773;DHT22;10546;50.674;4.616;2023-02-01T09:29:45;8.90;99.90
20773;DHT22;10546;50.674;4.616;2023-02-01T09:32:14;9.30;99.90
20773;DHT22;10546;50.674;4.616;2023-02-01T09:34:40;9.50;99.90
20773;DHT22;10546;50.674;4.616;2023-02-01T09:37:06;9.80;99.90
20773;DHT22;10546;50.674;4.616;2023-02-01T09:39:32;10.20;99.90
20773;DHT22;10546;50.674;4.616;2023-02-01T09:42:16;10.90;99.90
20773;DHT22;10546;50.674;4.616;2023-02-01T09:47:53;10.80;99.90
20773;DHT22;10546;50.674;4.616;2023-02-01T09:50:31;11.00;99.90
20773;DHT22;10546;50.674;4.616;2023-02-01T09:55:39;11.60;99.90
20773;DHT22;10546;50.674;4.616;2023-02-01T10:00:41;12.50;99.90
20773;DHT22;10546;50.674;4.616;2023-02-01T10:03:13;12.60;99.90
20773;DHT22;10546;50.674;4.616;2023-02-01T10:14:45;13.80;99.90
20773;DHT22;10546;50.674;4.616;2023-02-01T10:20:07;14.10;99.90
20773;DHT22;10546;50.674;4.616;2023-02-01T10:22:46;14.20;99.90
20773;DHT22;10546;50.674;4.616;2023-02-01T10:28:16;13.80;99.90
20773;DHT22;10546;50.674;4.616;2023-02-01T10:30:45;13.90;99.90
20773;DHT22;10546;50.674;4.616;2023-02-01T10:33:19;14.40;99.90
20773;DHT22;10546;50.674;4.616;2023-02-01T10:35:53;14.30;99.90
20773;DHT22;10546;50.674;4.616;2023-02-01T10:38:29;13.50;99.90
20773;DHT22;10546;50.674;4.616;2023-02-01T10:41:00;13.60;99.90
20773;DHT22;10546;50.674;4.616;2023-02-01T10:43:27;13.90;99.90
20773;DHT22;10546;50.674;4.616;2023-02-01T10:45:53;13.50;99.90
20773;DHT22;10546;50.674;4.616;2023-02-01T10:48:18;13.60;99.90
20773;DHT22;10546;50.674;4.616;2023-02-01T10:50:51;13.40;99.90
20773;DHT22;10546;50.674;4.616;2023-02-01T10:56:09;13.30;99.90
20773;DHT22;10546;50.674;4.616;2023-02-01T10:58:42;13.60;99.90
20773;DHT22;10546;50.674;4.616;2023-02-01T11:01:10;13.60;99.90
20773;DHT22;10546;50.674;4.616;2023-02-01T11:03:44;13.40;99.90
20773;DHT22;10546;50.674;4.616;2023-02-01T11:08:42;13.50;99.90
20773;DHT22;10546;50.674;4.616;2023-02-01T11:11:09;13.20;99.90
20773;DHT22;10546;50.674;4.616;2023-02-01T11:13:38;13.10;99.90
20773;DHT22;10546;50.674;4.616;2023-02-01T11:16:08;13.10;99.90
20773;DHT22;10546;50.674;4.616;2023-02-01T11:18:37;13.00;99.90
20773;DHT22;10546;50.674;4.616;2023-02-01T11:21:04;12.70;99.90
20773;DHT22;10546;50.674;4.616;2023-02-01T11:23:31;12.50;99.90
20773;DHT22;10546;50.674;4.616;2023-02-01T11:26:13;12.90;99.90
20773;DHT22;10546;50.674;4.616;2023-02-01T11:28:43;13.20;99.90
20773;DHT22;10546;50.674;4.616;2023-02-01T11:31:12;13.20;99.90
20773;DHT22;10546;50.674;4.616;2023-02-01T11:33:51;13.30;99.90
20773;DHT22;10546;50.674;4.616;2023-02-01T11:36:22;13.50;99.90
20773;DHT22;10546;50.674;4.616;2023-02-01T11:44:20;13.30;99.90
20773;DHT22;10546;50.674;4.616;2023-02-01T11:46:47;13.30;99.90
20773;DHT22;10546;50.674;4.616;2023-02-01T11:49:26;14.10;99.90
20773;DHT22;10546;50.674;4.616;2023-02-01T11:52:42;14.40;99.90
20773;DHT22;10546;50.674;4.616;2023-02-01T11:57:29;15.20;99.90
20773;DHT22;10546;50.674;4.616;2023-02-01T12:05:56;15.00;99.90
20773;DHT22;10546;50.674;4.616;2023-02-01T12:11:21;15.10;99.90
20773;DHT22;10546;50.674;4.616;2023-02-01T12:14:14;14.60;99.90
20773;DHT22;10546;50.674;4.616;2023-02-01T12:17:06;13.90;99.90
20773;DHT22;10546;50.674;4.616;2023-02-01T12:28:42;13.60;99.90
20773;DHT22;10546;50.674;4.616;2023-02-01T12:39:40;13.10;99.90
20773;DHT22;10546;50.674;4.616;2023-02-01T12:45:01;12.90;99.90
20773;DHT22;10546;50.674;4.616;2023-02-01T12:47:42;12.60;99.90
20773;DHT22;10546;50.674;4.616;2023-02-01T12:50:22;12.50;99.90
20773;DHT22;10546;50.674;4.616;2023-02-01T12:52:52;12.30;99.90
20773;DHT22;10546;50.674;4.616;2023-02-01T12:57:57;12.50;99.90
20773;DHT22;10546;50.674;4.616;2023-02-01T13:00:35;12.10;99.90
20773;DHT22;10546;50.674;4.616;2023-02-01T13:06:15;11.70;99.90
20773;DHT22;10546;50.674;4.616;2023-02-01T13:08:53;11.70;99.90
20773;DHT22;10546;50.674;4.616;2023-02-01T13:11:44;12.10;99.90
20773;DHT22;10546;50.674;4.616;2023-02-01T13:17:02;12.10;99.90
20773;DHT22;10546;50.674;4.616;2023-02-01T13:19:39;11.90;99.90
20773;DHT22;10546;50.674;4.616;2023-02-01T13:22:37;11.80;99.90
20773;DHT22;10546;50.674;4.616;2023-02-01T13:25:29;11.90;99.90
20773;DHT22;10546;50.674;4.616;2023-02-01T13:28:01;12.20;99.90
20773;DHT22;10546;50.674;4.616;2023-02-01T13:33:25;12.20;99.90
20773;DHT22;10546;50.674;4.616;2023-02-01T13:36:21;12.40;99.90
20773;DHT22;10546;50.674;4.616;2023-02-01T13:41:56;12.20;99.90
20773;DHT22;10546;50.674;4.616;2023-02-01T13:44:30;12.00;99.90
20773;DHT22;10546;50.674;4.616;2023-02-01T13:47:00;11.60;99.90
20773;DHT22;10546;50.674;4.616;2023-02-01T13:49:31;11.50;99.90
20773;DHT22;10546;50.674;4.616;2023-02-01T13:51:58;11.40;99.90
20773;DHT22;10546;50.674;4.616;2023-02-01T13:56:52;11.50;99.90
20773;DHT22;10546;50.674;4.616;2023-02-01T14:05:11;11.80;99.90
20773;DHT22;10546;50.674;4.616;2023-02-01T14:10:54;11.80;99.90
20773;DHT22;10546;50.674;4.616;2023-02-01T14:21:18;11.30;99.90
20773;DHT22;10546;50.674;4.616;2023-02-01T14:23:46;11.10;99.90
20773;DHT22;10546;50.674;4.616;2023-02-01T14:26:24;11.30;99.90
20773;DHT22;10546;50.674;4.616;2023-02-01T14:28:52;11.20;99.90
20773;DHT22;10546;50.674;4.616;2023-02-01T14:31:47;11.10;99.90
20773;DHT22;10546;50.674;4.616;2023-02-01T14:37:05;10.90;99.90
20773;DHT22;10546;50.674;4.616;2023-02-01T14:47:44;10.90;99.90
20773;DHT22;10546;50.674;4.616;2023-02-01T14:58:29;10.20;99.90
20773;DHT22;10546;50.674;4.616;2023-02-01T15:01:00;10.20;99.90
20773;DHT22;10546;50.674;4.616;2023-02-01T15:06:04;10.50;99.90
20773;DHT22;10546;50.674;4.616;2023-02-01T15:08:34;10.40;99.90
20773;DHT22;10546;50.674;4.616;2023-02-01T15:11:05;10.50;99.90
20773;DHT22;10546;50.674;4.616;2023-02-01T15:13:32;10.50;99.90
20773;DHT22;10546;50.674;4.616;2023-02-01T15:18:26;10.50;99.90
20773;DHT22;10546;50.674;4.616;2023-02-01T15:21:00;10.40;99.90
20773;DHT22;10546;50.674;4.616;2023-02-01T15:23:26;10.40;99.90
20773;DHT22;10546;50.674;4.616;2023-02-01T15:25:53;10.50;99.90
20773;DHT22;10546;50.674;4.616;2023-02-01T15:28:19;10.40;99.90
20773;DHT22;10546;50.674;4.616;2023-02-01T15:30:55;10.40;99.90
20773;DHT22;10546;50.674;4.616;2023-02-01T15:33:22;10.20;99.90
20773;DHT22;10546;50.674;4.616;2023-02-01T15:38:41;10.00;99.90
20773;DHT22;10546;50.674;4.616;2023-02-01T15:43:42;9.90;99.90
20773;DHT22;10546;50.674;4.616;2023-02-01T15:46:15;9.90;99.90
20773;DHT22;10546;50.674;4.616;2023-02-01T15:51:15;9.80;99.90
20773;DHT22;10546;50.674;4.616;2023-02-01T15:54:03;9.80;99.90
20773;DHT22;10546;50.674;4.616;2023-02-01T15:56:39;9.70;99.90
20773;DHT22;10546;50.674;4.616;2023-02-01T15:59:14;9.60;99.90
20773;DHT22;10546;50.674;4.616;2023-02-01T16:01:40;9.70;99.90
20773;DHT22;10546;50.674;4.616;2023-02-01T16:04:27;9.70;99.90
20773;DHT22;10546;50.674;4.616;2023-02-01T16:07:00;9.70;99.90
20773;DHT22;10546;50.674;4.616;2023-02-01T16:09:40;9.60;99.90
20773;DHT22;10546;50.674;4.616;2023-02-01T16:12:31;9.70;99.90
20773;DHT22;10546;50.674;4.616;2023-02-01T16:14:57;9.80;99.90
20773;DHT22;10546;50.674;4.616;2023-02-01T16:17:23;9.70;99.90
20773;DHT22;10546;50.674;4.616;2023-02-01T16:19:51;9.70;99.90
20773;DHT22;10546;50.674;4.616;2023-02-01T16:22:17;9.60;99.90
20773;DHT22;10546;50.674;4.616;2023-02-01T16:24:43;9.80;99.90
20773;DHT22;10546;50.674;4.616;2023-02-01T16:27:08;9.80;99.90
20773;DHT22;10546;50.674;4.616;2023-02-01T16:29:34;9.70;99.90
20773;DHT22;10546;50.674;4.616;2023-02-01T16:32:00;9.70;99.90
20773;DHT22;10546;50.674;4.616;2023-02-01T16:34:33;9.70;99.90
20773;DHT22;10546;50.674;4.616;2023-02-01T16:37:00;9.60;99.90
20773;DHT22;10546;50.674;4.616;2023-02-01T16:39:26;9.70;99.90
20773;DHT22;10546;50.674;4.616;2023-02-01T16:41:53;9.80;99.90
20773;DHT22;10546;50.674;4.616;2023-02-01T16:44:19;9.70;99.90
20773;DHT22;10546;50.674;4.616;2023-02-01T16:46:46;9.70;99.90
20773;DHT22;10546;50.674;4.616;2023-02-01T16:49:23;9.60;99.90
20773;DHT22;10546;50.674;4.616;2023-02-01T16:51:51;9.60;99.90
20773;DHT22;10546;50.674;4.616;2023-02-01T16:54:20;9.60;99.90
20773;DHT22;10546;50.674;4.616;2023-02-01T16:56:46;9.50;99.90
20773;DHT22;10546;50.674;4.616;2023-02-01T16:59:12;9.60;99.90
20773;DHT22;10546;50.674;4.616;2023-02-01T17:01:39;9.60;99.90
20773;DHT22;10546;50.674;4.616;2023-02-01T17:04:07;9.50;99.90
20773;DHT22;10546;50.674;4.616;2023-02-01T17:06:33;9.50;99.90
20773;DHT22;10546;50.674;4.616;2023-02-01T17:09:02;9.40;99.90
20773;DHT22;10546;50.674;4.616;2023-02-01T17:11:29;9.40;99.90
20773;DHT22;10546;50.674;4.616;2023-02-01T17:13:56;9.70;99.90
20773;DHT22;10546;50.674;4.616;2023-02-01T17:16:28;9.40;99.90
20773;DHT22;10546;50.674;4.616;2023-02-01T17:19:14;9.30;99.90
20773;DHT22;10546;50.674;4.616;2023-02-01T17:21:48;9.30;99.90
20773;DHT22;10546;50.674;4.616;2023-02-01T17:24:17;9.30;99.90
20773;DHT22;10546;50.674;4.616;2023-02-01T17:26:44;9.40;99.90
20773;DHT22;10546;50.674;4.616;2023-02-01T17:29:10;9.40;99.90
20773;DHT22;10546;50.674;4.616;2023-02-01T17:31:39;9.30;99.90
20773;DHT22;10546;50.674;4.616;2023-02-01T17:34:05;9.10;99.90
20773;DHT22;10546;50.674;4.616;2023-02-01T17:36:30;9.10;99.90
20773;DHT22;10546;50.674;4.616;2023-02-01T17:38:56;9.30;99.90
20773;DHT22;10546;50.674;4.616;2023-02-01T17:41:24;9.30;99.90
20773;DHT22;10546;50.674;4.616;2023-02-01T17:43:51;9.20;99.90
20773;DHT22;10546;50.674;4.616;2023-02-01T17:46:17;9.20;99.90
20773;DHT22;10546;50.674;4.616;2023-02-01T17:48:45;9.10;99.90
20773;DHT22;10546;50.674;4.616;2023-02-01T17:51:19;9.00;99.90
20773;DHT22;10546;50.674;4.616;2023-02-01T17:53:45;9.00;99.90
20773;DHT22;10546;50.674;4.616;2023-02-01T17:56:16;9.10;99.90
20773;DHT22;10546;50.674;4.616;2023-02-01T17:58:42;9.10;99.90
20773;DHT22;10546;50.674;4.616;2023-02-01T18:01:13;9.00;99.90
20773;DHT22;10546;50.674;4.616;2023-02-01T18:03:39;8.90;99.90
20773;DHT22;10546;50.674;4.616;2023-02-01T18:06:09;8.80;99.90
20773;DHT22;10546;50.674;4.616;2023-02-01T18:08:37;8.80;99.90
20773;DHT22;10546;50.674;4.616;2023-02-01T18:11:08;8.70;99.90
20773;DHT22;10546;50.674;4.616;2023-02-01T18:13:34;8.60;99.90
20773;DHT22;10546;50.674;4.616;2023-02-01T18:16:00;8.70;99.90
20773;DHT22;10546;50.674;4.616;2023-02-01T18:18:29;8.70;99.90
20773;DHT22;10546;50.674;4.616;2023-02-01T18:20:58;8.60;99.90
20773;DHT22;10546;50.674;4.616;2023-02-01T18:23:24;8.80;99.90
20773;DHT22;10546;50.674;4.616;2023-02-01T18:25:51;8.80;99.90
20773;DHT22;10546;50.674;4.616;2023-02-01T18:28:17;8.80;99.90
20773;DHT22;10546;50.674;4.616;2023-02-01T18:30:45;8.60;99.90
20773;DHT22;10546;50.674;4.616;2023-02-01T18:33:14;8.80;99.90
20773;DHT22;10546;50.674;4.616;2023-02-01T18:35:41;8.60;99.90
20773;DHT22;10546;50.674;4.616;2023-02-01T18:38:08;8.80;99.90
20773;DHT22;10546;50.674;4.616;2023-02-01T18:40:43;8.60;99.90
20773;DHT22;10546;50.674;4.616;2023-02-01T18:43:14;8.60;99.90
20773;DHT22;10546;50.674;4.616;2023-02-01T18:45:41;8.50;99.90
20773;DHT22;10546;50.674;4.616;2023-02-01T18:48:10;8.50;99.90
20773;DHT22;10546;50.674;4.616;2023-02-01T18:50:39;8.70;99.90
20773;DHT22;10546;50.674;4.616;2023-02-01T18:53:11;8.70;99.90
20773;DHT22;10546;50.674;4.616;2023-02-01T18:55:37;8.70;99.90
20773;DHT22;10546;50.674;4.616;2023-02-01T18:58:03;8.40;99.90
20773;DHT22;10546;50.674;4.616;2023-02-01T19:00:31;8.60;99.90
20773;DHT22;10546;50.674;4.616;2023-02-01T19:02:57;8.50;99.90
20773;DHT22;10546;50.674;4.616;2023-02-01T19:05:22;8.60;99.90
20773;DHT22;10546;50.674;4.616;2023-02-01T19:07:48;8.30;99.90
20773;DHT22;10546;50.674;4.616;2023-02-01T19:10:17;8.40;99.90
20773;DHT22;10546;50.674;4.616;2023-02-01T19:12:43;8.30;99.90
20773;DHT22;10546;50.674;4.616;2023-02-01T19:15:11;8.30;99.90
20773;DHT22;10546;50.674;4.616;2023-02-01T19:17:47;8.40;99.90
20773;DHT22;10546;50.674;4.616;2023-02-01T19:20:17;8.40;99.90
20773;DHT22;10546;50.674;4.616;2023-02-01T19:22:43;8.30;99.90
20773;DHT22;10546;50.674;4.616;2023-02-01T19:25:15;8.20;99.90
20773;DHT22;10546;50.674;4.616;2023-02-01T19:27:42;8.20;99.90
20773;DHT22;10546;50.674;4.616;2023-02-01T19:30:11;8.20;99.90
20773;DHT22;10546;50.674;4.616;2023-02-01T19:32:37;8.20;99.90
20773;DHT22;10546;50.674;4.616;2023-02-01T19:35:03;8.30;99.90
20773;DHT22;10546;50.674;4.616;2023-02-01T19:37:30;8.30;99.90
20773;DHT22;10546;50.674;4.616;2023-02-01T19:39:55;8.40;99.90
20773;DHT22;10546;50.674;4.616;2023-02-01T19:42:24;8.40;99.90
20773;DHT22;10546;50.674;4.616;2023-02-01T19:44:50;8.40;99.90
20773;DHT22;10546;50.674;4.616;2023-02-01T19:47:16;8.40;99.90
20773;DHT22;10546;50.674;4.616;2023-02-01T19:49:41;8.30;99.90
20773;DHT22;10546;50.674;4.616;2023-02-01T19:52:07;8.30;99.90
20773;DHT22;10546;50.674;4.616;2023-02-01T19:54:33;8.30;99.90
20773;DHT22;10546;50.674;4.616;2023-02-01T19:56:58;8.20;99.90
20773;DHT22;10546;50.674;4.616;2023-02-01T19:59:24;8.30;99.90
20773;DHT22;10546;50.674;4.616;2023-02-01T20:01:50;8.20;99.90
20773;DHT22;10546;50.674;4.616;2023-02-01T20:04:17;8.20;99.90
20773;DHT22;10546;50.674;4.616;2023-02-01T20:06:44;8.20;99.90
20773;DHT22;10546;50.674;4.616;2023-02-01T20:09:18;8.20;99.90
20773;DHT22;10546;50.674;4.616;2023-02-01T20:11:45;8.30;99.90
20773;DHT22;10546;50.674;4.616;2023-02-01T20:14:10;8.30;99.90
20773;DHT22;10546;50.674;4.616;2023-02-01T20:16:37;8.50;99.90
20773;DHT22;10546;50.674;4.616;2023-02-01T20:19:03;8.30;99.90
20773;DHT22;10546;50.674;4.616;2023-02-01T20:21:30;8.30;99.90
20773;DHT22;10546;50.674;4.616;2023-02-01T20:23:56;8.20;99.90
20773;DHT22;10546;50.674;4.616;2023-02-01T20:26:22;8.40;99.90
20773;DHT22;10546;50.674;4.616;2023-02-01T20:28:49;8.40;99.90
20773;DHT22;10546;50.674;4.616;2023-02-01T20:31:16;8.40;99.90
20773;DHT22;10546;50.674;4.616;2023-02-01T20:33:42;8.20;99.90
20773;DHT22;10546;50.674;4.616;2023-02-01T20:36:08;8.30;99.90
20773;DHT22;10546;50.674;4.616;2023-02-01T20:38:33;8.30;99.90
20773;DHT22;10546;50.674;4.616;2023-02-01T20:41:03;8.40;99.90
20773;DHT22;10546;50.674;4.616;2023-02-01T20:43:29;8.40;99.90
20773;DHT22;10546;50.674;4.616;2023-02-01T20:45:55;8.50;99.90
20773;DHT22;10546;50.674;4.616;2023-02-01T20:48:21;8.60;99.90
20773;DHT22;10546;50.674;4.616;2023-02-01T20:50:46;8.60;99.90
20773;DHT22;10546;50.674;4.616;2023-02-01T20:53:12;8.70;99.90
20773;DHT22;10546;50.674;4.616;2023-02-01T20:55:38;8.70;99.90
20773;DHT22;10546;50.674;4.616;2023-02-01T20:58:03;8.60;99.90
20773;DHT22;10546;50.674;4.616;2023-02-01T21:00:29;8.40;99.90
20773;DHT22;10546;50.674;4.616;2023-02-01T21:02:55;8.40;99.90
20773;DHT22;10546;50.674;4.616;2023-02-01T21:05:21;8.40;99.90
20773;DHT22;10546;50.674;4.616;2023-02-01T21:07:47;8.60;99.90
20773;DHT22;10546;50.674;4.616;2023-02-01T21:10:12;8.40;99.90
20773;DHT22;10546;50.674;4.616;2023-02-01T21:12:38;8.50;99.90
20773;DHT22;10546;50.674;4.616;2023-02-01T21:15:04;8.40;99.90
20773;DHT22;10546;50.674;4.616;2023-02-01T21:17:31;8.30;99.90
20773;DHT22;10546;50.674;4.616;2023-02-01T21:19:57;8.30;99.90
20773;DHT22;10546;50.674;4.616;2023-02-01T21:22:23;8.30;99.90
20773;DHT22;10546;50.674;4.616;2023-02-01T21:24:49;8.30;99.90
20773;DHT22;10546;50.674;4.616;2023-02-01T21:27:14;8.40;99.90
20773;DHT22;10546;50.674;4.616;2023-02-01T21:29:40;8.40;99.90
20773;DHT22;10546;50.674;4.616;2023-02-01T21:32:07;8.40;99.90
20773;DHT22;10546;50.674;4.616;2023-02-01T21:34:33;8.60;99.90
20773;DHT22;10546;50.674;4.616;2023-02-01T21:36:59;8.50;99.90
20773;DHT22;10546;50.674;4.616;2023-02-01T21:39:25;8.30;99.90
20773;DHT22;10546;50.674;4.616;2023-02-01T21:41:53;8.40;99.90
20773;DHT22;10546;50.674;4.616;2023-02-01T21:44:38;8.40;99.90
20773;DHT22;10546;50.674;4.616;2023-02-01T21:47:03;8.40;99.90
20773;DHT22;10546;50.674;4.616;2023-02-01T21:49:29;8.30;99.90
20773;DHT22;10546;50.674;4.616;2023-02-01T21:51:55;8.20;99.90
20773;DHT22;10546;50.674;4.616;2023-02-01T21:54:20;8.30;99.90
20773;DHT22;10546;50.674;4.616;2023-02-01T21:56:46;8.40;99.90
20773;DHT22;10546;50.674;4.616;2023-02-01T21:59:12;8.40;99.90
20773;DHT22;10546;50.674;4.616;2023-02-01T22:01:39;8.40;99.90
20773;DHT22;10546;50.674;4.616;2023-02-01T22:04:05;8.20;99.90
20773;DHT22;10546;50.674;4.616;2023-02-01T22:06:34;8.40;99.90
20773;DHT22;10546;50.674;4.616;2023-02-01T22:09:00;8.50;99.90
20773;DHT22;10546;50.674;4.616;2023-02-01T22:11:26;8.50;99.90
20773;DHT22;10546;50.674;4.616;2023-02-01T22:13:52;8.50;99.90
20773;DHT22;10546;50.674;4.616;2023-02-01T22:16:18;8.50;99.90
20773;DHT22;10546;50.674;4.616;2023-02-01T22:18:52;8.60;99.90
20773;DHT22;10546;50.674;4.616;2023-02-01T22:21:19;8.60;99.90
20773;DHT22;10546;50.674;4.616;2023-02-01T22:23:51;8.50;99.90
20773;DHT22;10546;50.674;4.616;2023-02-01T22:26:18;8.50;99.90
20773;DHT22;10546;50.674;4.616;2023-02-01T22:28:44;8.40;99.90
20773;DHT22;10546;50.674;4.616;2023-02-01T22:31:09;8.40;99.90
20773;DHT22;10546;50.674;4.616;2023-02-01T22:33:36;8.40;99.90
20773;DHT22;10546;50.674;4.616;2023-02-01T22:36:03;8.30;99.90
20773;DHT22;10546;50.674;4.616;2023-02-01T22:38:30;8.30;99.90
